Minerva Atlantica — ZCPR7 — position and weather

sailwx.info

Track history (hours):
 
Tides and Currents Weather Stations Pressure Air Temp Water Temp Dewpoint Dewpoint Depression Visibility Wind Speed Wind Dir Waves Ship Positions

Minerva Atlantica

Last reported at 2015-Aug-05 11:31 UTC. Time now 2015-Aug-05 12:33 UTC.
Position N 54°05' E 007°29'.

Length 250 m; draft 12 m.

Type: Tanker. MMSI: 319161000.

Date/timePositionNaut miles runAvg speedWind from/ knotsBaromVisibWave heightAir tempDewpointWater temp
2015-Aug-05 11:31N 54°05' E 007°29'0 0.0
2015-Aug-05 10:34N 54°05' E 007°29'3 2.6
2015-Aug-05 09:33N 54°08' E 007°28'1110.9
2015-Aug-05 08:33N 54°14' E 007°13'1211.9
2015-Aug-05 07:33N 54°14' E 006°53'3711.6
2015-Aug-05 04:22N 54°15' E 005°49'1011.9
2015-Aug-05 03:32N 54°15' E 005°32'1212.1
2015-Aug-05 02:32N 54°15' E 005°12'1212.4
2015-Aug-05 01:33N 54°17' E 004°51'1312.8
2015-Aug-05 00:33N 54°18' E 004°29'1313.1
2015-Aug-04 23:32N 54°19' E 004°06'1313.2
2015-Aug-04 22:32N 54°20' E 003°44'9812.2
2015-Aug-04 14:32N 54°30' E 000°57'1111.5
2015-Aug-04 13:33N 54°31' E 000°38'1312.9
2015-Aug-04 12:33N 54°34' E 000°16'1211.6
2015-Aug-04 11:33N 54°36' W 000°04'1111.3
2015-Aug-04 10:33N 54°38' W 000°23'1311.8
2015-Aug-04 09:29N 54°42' W 000°44'1111.8
2015-Aug-04 08:32N 54°42' W 001°04'6 0.4
2015-Aug-03 17:32N 54°37' W 001°10'0 0.0
2015-Aug-03 16:17N 54°37' W 001°10'0 0.0
2015-Aug-03 15:32N 54°37' W 001°10'0 0.0
2015-Aug-03 13:32N 54°37' W 001°10'0 0.0
2015-Aug-03 12:32N 54°37' W 001°10'0 0.0
2015-Aug-03 06:29N 54°37' W 001°10'0 0.0
2015-Aug-02 16:26N 54°37' W 001°10'0 0.0
2015-Aug-02 14:29N 54°37' W 001°10'0 0.0
2015-Aug-02 12:32N 54°37' W 001°10'0 0.2
2015-Aug-02 11:33N 54°38' W 001°10'7 6.6
2015-Aug-02 10:33N 54°44' W 001°06'4 4.1
2015-Aug-02 09:33N 54°48' W 001°06'10 9.7
2015-Aug-02 08:33N 54°58' W 001°06'1312.8
2015-Aug-02 07:32N 55°11' W 001°06'1313.0
2015-Aug-02 06:33N 55°23' W 001°05'1413.8
2015-Aug-02 05:31N 55°38' W 001°04'3014.6
2015-Aug-02 03:26N 56°08' W 001°05'21111.8
2015-Aug-01 09:33N 59°24' W 003°32'1514.9
2015-Aug-01 08:33N 59°17' W 003°58'1514.8
2015-Aug-01 07:33N 59°11' W 004°24'1514.7
2015-Aug-01 06:33N 59°04' W 004°49'20510.8
2015-Jul-31 11:31N 55°51' W 006°57'1313.1
2015-Jul-31 10:33N 55°41' W 006°43'1212.4
2015-Jul-31 09:33N 55°32' W 006°27'1111.5
2015-Jul-31 08:33N 55°26' W 006°10'1010.3
2015-Jul-31 07:33N 55°19' W 005°56'1111.0
2015-Jul-31 06:33N 55°10' W 005°46'1312.6
2015-Jul-31 05:33N 54°60' W 005°34'1414.1
2015-Jul-31 04:33N 54°47' W 005°23'1414.2
2015-Jul-31 03:33N 54°34' W 005°13'1414.2
2015-Jul-31 02:33N 54°20' W 005°07'1414.2
2015-Jul-31 01:33N 54°07' W 005°01'1414.0
2015-Jul-31 00:33N 53°56' W 004°46'2814.1
2015-Jul-30 22:32N 53°41' W 004°04'1312.9
2015-Jul-30 21:33N 53°35' W 003°45'1211.8
2015-Jul-30 20:33N 53°33' W 003°26'8 7.9
2015-Jul-30 19:33N 53°31' W 003°13'9 9.0
2015-Jul-30 18:33N 53°26' W 003°01'3 2.8
2015-Jul-30 17:32N 53°23' W 003°00'0 0.0
2015-Jul-30 16:29N 53°23' W 003°00'0 0.0
2015-Jul-30 15:32N 53°23' W 003°00'0 0.0
2015-Jul-30 14:29N 53°23' W 003°00'0 0.0
2015-Jul-30 13:32N 53°23' W 003°00'0 0.0
2015-Jul-30 12:32N 53°23' W 003°00'0 0.0
2015-Jul-30 11:32N 53°23' W 003°00'0 0.0
2015-Jul-30 10:32N 53°23' W 003°00'0 0.0
2015-Jul-30 09:32N 53°23' W 003°00'0 0.0
2015-Jul-30 08:32N 53°23' W 003°00'0 0.0
2015-Jul-30 07:32N 53°23' W 003°00'0 0.0
2015-Jul-30 06:29N 53°23' W 003°00'0 0.0
2015-Jul-30 05:32N 53°23' W 003°00'0 0.0
2015-Jul-30 04:32N 53°23' W 003°00'0 0.0
2015-Jul-30 03:17N 53°23' W 003°00'0 0.0
2015-Jul-30 02:32N 53°23' W 003°00'0 0.0
2015-Jul-30 01:29N 53°23' W 003°00'0 0.0
2015-Jul-30 00:32N 53°23' W 003°00'0 0.0
2015-Jul-29 23:32N 53°23' W 003°00'0 0.0
2015-Jul-29 22:32N 53°23' W 003°00'0 0.0
2015-Jul-29 21:29N 53°23' W 003°00'0 0.0
2015-Jul-29 20:32N 53°23' W 003°00'0 0.0
2015-Jul-29 19:29N 53°23' W 003°00'0 0.0
2015-Jul-29 18:32N 53°23' W 003°00'0 0.0
2015-Jul-29 17:29N 53°23' W 003°00'0 0.0
2015-Jul-29 16:29N 53°23' W 003°00'0 0.0
2015-Jul-29 15:32N 53°23' W 003°00'0 0.0
2015-Jul-29 14:32N 53°23' W 003°00'0 0.0
2015-Jul-29 13:32N 53°23' W 003°00'0 0.0
2015-Jul-29 12:32N 53°23' W 003°00'0 0.0
2015-Jul-29 11:29N 53°23' W 003°00'0 0.0
2015-Jul-29 10:29N 53°23' W 003°00'0 0.0
2015-Jul-29 09:29N 53°23' W 003°00'0 0.0
2015-Jul-29 08:26N 53°23' W 003°00'0 0.0
2015-Jul-29 07:29N 53°23' W 003°00'0 0.0
2015-Jul-29 06:32N 53°23' W 003°00'0 0.0
2015-Jul-29 05:32N 53°23' W 003°00'0 0.0
2015-Jul-29 04:32N 53°23' W 003°00'0 0.0
2015-Jul-29 03:32N 53°23' W 003°00'0 0.0
2015-Jul-29 02:32N 53°23' W 003°00'0 0.0
2015-Jul-29 01:32N 53°23' W 003°00'0 0.0
2015-Jul-29 00:32N 53°23' W 003°00'0 0.0
2015-Jul-28 23:29N 53°23' W 003°00'0 0.0
2015-Jul-28 22:29N 53°23' W 003°00'0 0.0
2015-Jul-28 21:32N 53°23' W 003°00'0 0.4
2015-Jul-28 20:33N 53°23' W 003°00'7 6.8
2015-Jul-28 19:32N 53°29' W 003°05'1010.4
2015-Jul-28 18:32N 53°32' W 003°22'9 8.8
2015-Jul-28 17:33N 53°30' W 003°37'9 8.6
2015-Jul-28 16:33N 53°30' W 003°51'8 8.6
2015-Jul-28 15:33N 53°29' W 004°05'1 1.0
2015-Jul-28 14:32N 53°29' W 004°07'1 1.4
2015-Jul-28 13:32N 53°28' W 004°09'3 2.4
2015-Jul-28 12:16N 53°25' W 004°10'1 1.5
2015-Jul-28 11:25N 53°26' W 004°10'2 0.3
2015-Jul-28 05:22N 53°24' W 004°09'0 0.0
2015-Jul-28 04:22N 53°24' W 004°09'0 0.1
2015-Jul-28 00:31N 53°25' W 004°09'4 4.2
2015-Jul-27 23:33N 53°28' W 004°14'5211.8
2015-Jul-27 19:07N 54°11' W 005°02'712.4
2015-Jul-27 18:33N 54°18' W 005°05'1312.6
2015-Jul-27 17:33N 54°30' W 005°11'1312.8
2015-Jul-27 16:33N 54°42' W 005°18'1313.1
2015-Jul-27 15:33N 54°53' W 005°31'1312.7
2015-Jul-27 14:33N 55°03' W 005°44'1211.8
2015-Jul-27 13:34N 55°13' W 005°56'1010.4
2015-Jul-27 12:33N 55°21' W 006°08'1010.5
2015-Jul-27 11:33N 55°24' W 006°25'1010.3
2015-Jul-27 10:33N 55°32' W 006°38'1010.2
2015-Jul-27 09:33N 55°40' W 006°48'1110.9
2015-Jul-27 08:33N 55°50' W 006°59'  
Track history (hours):
 
Tides and Currents Weather Stations Pressure Air Temp Water Temp Dewpoint Dewpoint Depression Visibility Wind Speed Wind Dir Waves Ship Positions

Minerva Atlantica

Last reported at 2015-Aug-05 11:31 UTC. Time now 2015-Aug-05 12:33 UTC.
Position N 54°05' E 007°29'.

Length 250 m; draft 12 m.

Type: Tanker. MMSI: 319161000.

Date/timePositionNaut miles runAvg speedWind from/ knotsBaromVisibWave heightAir tempDewpointWater temp
2015-Aug-05 11:31N 54°05' E 007°29'0 0.0
2015-Aug-05 10:34N 54°05' E 007°29'3 2.6
2015-Aug-05 09:33N 54°08' E 007°28'1110.9
2015-Aug-05 08:33N 54°14' E 007°13'1211.9
2015-Aug-05 07:33N 54°14' E 006°53'3711.6
2015-Aug-05 04:22N 54°15' E 005°49'1011.9
2015-Aug-05 03:32N 54°15' E 005°32'1212.1
2015-Aug-05 02:32N 54°15' E 005°12'1212.4
2015-Aug-05 01:33N 54°17' E 004°51'1312.8
2015-Aug-05 00:33N 54°18' E 004°29'1313.1
2015-Aug-04 23:32N 54°19' E 004°06'1313.2
2015-Aug-04 22:32N 54°20' E 003°44'9812.2
2015-Aug-04 14:32N 54°30' E 000°57'1111.5
2015-Aug-04 13:33N 54°31' E 000°38'1312.9
2015-Aug-04 12:33N 54°34' E 000°16'1211.6
2015-Aug-04 11:33N 54°36' W 000°04'1111.3
2015-Aug-04 10:33N 54°38' W 000°23'1311.8
2015-Aug-04 09:29N 54°42' W 000°44'1111.8
2015-Aug-04 08:32N 54°42' W 001°04'6 0.4
2015-Aug-03 17:32N 54°37' W 001°10'0 0.0
2015-Aug-03 16:17N 54°37' W 001°10'0 0.0
2015-Aug-03 15:32N 54°37' W 001°10'0 0.0
2015-Aug-03 13:32N 54°37' W 001°10'0 0.0
2015-Aug-03 12:32N 54°37' W 001°10'0 0.0
2015-Aug-03 06:29N 54°37' W 001°10'0 0.0
2015-Aug-02 16:26N 54°37' W 001°10'0 0.0
2015-Aug-02 14:29N 54°37' W 001°10'0 0.0
2015-Aug-02 12:32N 54°37' W 001°10'0 0.2
2015-Aug-02 11:33N 54°38' W 001°10'7 6.6
2015-Aug-02 10:33N 54°44' W 001°06'4 4.1
2015-Aug-02 09:33N 54°48' W 001°06'10 9.7
2015-Aug-02 08:33N 54°58' W 001°06'1312.8
2015-Aug-02 07:32N 55°11' W 001°06'1313.0
2015-Aug-02 06:33N 55°23' W 001°05'1413.8
2015-Aug-02 05:31N 55°38' W 001°04'3014.6
2015-Aug-02 03:26N 56°08' W 001°05'21111.8
2015-Aug-01 09:33N 59°24' W 003°32'1514.9
2015-Aug-01 08:33N 59°17' W 003°58'1514.8
2015-Aug-01 07:33N 59°11' W 004°24'1514.7
2015-Aug-01 06:33N 59°04' W 004°49'20510.8
2015-Jul-31 11:31N 55°51' W 006°57'1313.1
2015-Jul-31 10:33N 55°41' W 006°43'1212.4
2015-Jul-31 09:33N 55°32' W 006°27'1111.5
2015-Jul-31 08:33N 55°26' W 006°10'1010.3
2015-Jul-31 07:33N 55°19' W 005°56'1111.0
2015-Jul-31 06:33N 55°10' W 005°46'1312.6
2015-Jul-31 05:33N 54°60' W 005°34'1414.1
2015-Jul-31 04:33N 54°47' W 005°23'1414.2
2015-Jul-31 03:33N 54°34' W 005°13'1414.2
2015-Jul-31 02:33N 54°20' W 005°07'1414.2
2015-Jul-31 01:33N 54°07' W 005°01'1414.0
2015-Jul-31 00:33N 53°56' W 004°46'2814.1
2015-Jul-30 22:32N 53°41' W 004°04'1312.9
2015-Jul-30 21:33N 53°35' W 003°45'1211.8
2015-Jul-30 20:33N 53°33' W 003°26'8 7.9
2015-Jul-30 19:33N 53°31' W 003°13'9 9.0
2015-Jul-30 18:33N 53°26' W 003°01'3 2.8
2015-Jul-30 17:32N 53°23' W 003°00'0 0.0
2015-Jul-30 16:29N 53°23' W 003°00'0 0.0
2015-Jul-30 15:32N 53°23' W 003°00'0 0.0
2015-Jul-30 14:29N 53°23' W 003°00'0 0.0
2015-Jul-30 13:32N 53°23' W 003°00'0 0.0
2015-Jul-30 12:32N 53°23' W 003°00'0 0.0
2015-Jul-30 11:32N 53°23' W 003°00'0 0.0
2015-Jul-30 10:32N 53°23' W 003°00'0 0.0
2015-Jul-30 09:32N 53°23' W 003°00'0 0.0
2015-Jul-30 08:32N 53°23' W 003°00'0 0.0
2015-Jul-30 07:32N 53°23' W 003°00'0 0.0
2015-Jul-30 06:29N 53°23' W 003°00'0 0.0
2015-Jul-30 05:32N 53°23' W 003°00'0 0.0
2015-Jul-30 04:32N 53°23' W 003°00'0 0.0
2015-Jul-30 03:17N 53°23' W 003°00'0 0.0
2015-Jul-30 02:32N 53°23' W 003°00'0 0.0
2015-Jul-30 01:29N 53°23' W 003°00'0 0.0
2015-Jul-30 00:32N 53°23' W 003°00'0 0.0
2015-Jul-29 23:32N 53°23' W 003°00'0 0.0
2015-Jul-29 22:32N 53°23' W 003°00'0 0.0
2015-Jul-29 21:29N 53°23' W 003°00'0 0.0
2015-Jul-29 20:32N 53°23' W 003°00'0 0.0
2015-Jul-29 19:29N 53°23' W 003°00'0 0.0
2015-Jul-29 18:32N 53°23' W 003°00'0 0.0
2015-Jul-29 17:29N 53°23' W 003°00'0 0.0
2015-Jul-29 16:29N 53°23' W 003°00'0 0.0
2015-Jul-29 15:32N 53°23' W 003°00'0 0.0
2015-Jul-29 14:32N 53°23' W 003°00'0 0.0
2015-Jul-29 13:32N 53°23' W 003°00'0 0.0
2015-Jul-29 12:32N 53°23' W 003°00'0 0.0
2015-Jul-29 11:29N 53°23' W 003°00'0 0.0
2015-Jul-29 10:29N 53°23' W 003°00'0 0.0
2015-Jul-29 09:29N 53°23' W 003°00'0 0.0
2015-Jul-29 08:26N 53°23' W 003°00'0 0.0
2015-Jul-29 07:29N 53°23' W 003°00'0 0.0
2015-Jul-29 06:32N 53°23' W 003°00'0 0.0
2015-Jul-29 05:32N 53°23' W 003°00'0 0.0
2015-Jul-29 04:32N 53°23' W 003°00'0 0.0
2015-Jul-29 03:32N 53°23' W 003°00'0 0.0
2015-Jul-29 02:32N 53°23' W 003°00'0 0.0
2015-Jul-29 01:32N 53°23' W 003°00'0 0.0
2015-Jul-29 00:32N 53°23' W 003°00'0 0.0
2015-Jul-28 23:29N 53°23' W 003°00'0 0.0
2015-Jul-28 22:29N 53°23' W 003°00'0 0.0
2015-Jul-28 21:32N 53°23' W 003°00'0 0.4
2015-Jul-28 20:33N 53°23' W 003°00'7 6.8
2015-Jul-28 19:32N 53°29' W 003°05'1010.4
2015-Jul-28 18:32N 53°32' W 003°22'9 8.8
2015-Jul-28 17:33N 53°30' W 003°37'9 8.6
2015-Jul-28 16:33N 53°30' W 003°51'8 8.6
2015-Jul-28 15:33N 53°29' W 004°05'1 1.0
2015-Jul-28 14:32N 53°29' W 004°07'1 1.4
2015-Jul-28 13:32N 53°28' W 004°09'3 2.4
2015-Jul-28 12:16N 53°25' W 004°10'1 1.5
2015-Jul-28 11:25N 53°26' W 004°10'2 0.3
2015-Jul-28 05:22N 53°24' W 004°09'0 0.0
2015-Jul-28 04:22N 53°24' W 004°09'0 0.1
2015-Jul-28 00:31N 53°25' W 004°09'4 4.2
2015-Jul-27 23:33N 53°28' W 004°14'5211.8
2015-Jul-27 19:07N 54°11' W 005°02'712.4
2015-Jul-27 18:33N 54°18' W 005°05'1312.6
2015-Jul-27 17:33N 54°30' W 005°11'1312.8
2015-Jul-27 16:33N 54°42' W 005°18'1313.1
2015-Jul-27 15:33N 54°53' W 005°31'1312.7
2015-Jul-27 14:33N 55°03' W 005°44'1211.8
2015-Jul-27 13:34N 55°13' W 005°56'1010.4
2015-Jul-27 12:33N 55°21' W 006°08'1010.5
2015-Jul-27 11:33N 55°24' W 006°25'1010.3
2015-Jul-27 10:33N 55°32' W 006°38'1010.2
2015-Jul-27 09:33N 55°40' W 006°48'1110.9
2015-Jul-27 08:33N 55°50' W 006°59'  

Dump ship's entire track history